createdAt,value
2018-04-06T00:00:29.356Z,-1.41
2018-04-06T00:01:29.276Z,-1.44
2018-04-06T00:02:29.366Z,-1.48
2018-04-06T00:03:29.320Z,-1.52
2018-04-06T00:04:29.372Z,-1.56
2018-04-06T00:05:29.321Z,-1.60
2018-04-06T00:06:29.373Z,-1.67
2018-04-06T00:07:29.369Z,-1.73
2018-04-06T00:08:29.256Z,-1.77
2018-04-06T00:09:29.373Z,-1.80
2018-04-06T00:10:29.286Z,-1.85
2018-04-06T00:11:29.364Z,-1.80
2018-04-06T00:12:29.324Z,-1.77
2018-04-06T00:13:29.326Z,-1.78
2018-04-06T00:14:29.254Z,-1.85
2018-04-06T00:15:29.351Z,-1.89
2018-04-06T00:16:29.263Z,-1.89
2018-04-06T00:17:29.327Z,-1.78
2018-04-06T00:18:29.327Z,-1.74
2018-04-06T00:19:29.292Z,-1.74
2018-04-06T00:20:29.374Z,-1.77
2018-04-06T00:21:29.265Z,-1.78
2018-04-06T00:22:29.257Z,-1.80
2018-04-06T00:23:29.264Z,-1.73
2018-04-06T00:24:29.296Z,-1.70
2018-04-06T00:25:29.296Z,-1.73
2018-04-06T00:26:29.388Z,-1.73
2018-04-06T00:27:29.338Z,-1.70
2018-04-06T00:28:29.288Z,-1.74
2018-04-06T00:29:29.387Z,-1.81
2018-04-06T00:30:29.358Z,-1.89
2018-04-06T00:31:29.357Z,-1.91
2018-04-06T00:32:29.391Z,-1.82
2018-04-06T00:33:29.365Z,-1.82
2018-04-06T00:34:29.338Z,-1.84
2018-04-06T00:35:29.382Z,-1.89
2018-04-06T00:36:29.389Z,-1.89
2018-04-06T00:37:29.389Z,-1.85
2018-04-06T00:38:29.307Z,-1.81
2018-04-06T00:39:29.340Z,-1.78
2018-04-06T00:40:29.344Z,-1.80
2018-04-06T00:41:29.341Z,-1.84
2018-04-06T00:42:29.389Z,-1.85
2018-04-06T00:43:29.387Z,-1.85
2018-04-06T00:44:29.395Z,-1.82
2018-04-06T00:45:29.388Z,-1.77
2018-04-06T00:46:29.385Z,-1.71
2018-04-06T00:47:29.418Z,-1.73
2018-04-06T00:48:29.300Z,-1.78
2018-04-06T00:49:29.276Z,-1.82
2018-04-06T00:50:29.351Z,-1.87
2018-04-06T00:51:29.344Z,-1.89
2018-04-06T00:52:29.282Z,-1.91
2018-04-06T00:53:29.275Z,-1.93
2018-04-06T00:54:29.343Z,-1.98
2018-04-06T00:55:29.281Z,-2.00
2018-04-06T00:56:29.406Z,-2.05
2018-04-06T00:57:29.317Z,-2.11
2018-04-06T00:58:29.312Z,-2.12
2018-04-06T00:59:29.286Z,-2.15
2018-04-06T01:00:29.317Z,-2.15
2018-04-06T01:01:29.410Z,-2.08
2018-04-06T01:02:29.377Z,-2.09
2018-04-06T01:03:29.358Z,-2.12
2018-04-06T01:04:29.474Z,-2.13
2018-04-06T01:05:29.403Z,-2.19
2018-04-06T01:06:29.295Z,-2.18
2018-04-06T01:07:29.301Z,-2.18
2018-04-06T01:08:29.416Z,-2.20
2018-04-06T01:09:29.362Z,-2.22
2018-04-06T01:10:29.314Z,-2.22
2018-04-06T01:11:29.407Z,-2.23
2018-04-06T01:12:29.316Z,-2.20
2018-04-06T01:13:29.403Z,-2.13
2018-04-06T01:14:29.417Z,-2.09
2018-04-06T01:15:29.357Z,-2.07
2018-04-06T01:16:29.296Z,-2.05
2018-04-06T01:17:29.403Z,-2.08
2018-04-06T01:18:29.391Z,-2.07
2018-04-06T01:19:29.411Z,-2.08
2018-04-06T01:20:29.366Z,-2.13
2018-04-06T01:21:29.323Z,-2.15
2018-04-06T01:22:29.419Z,-2.20
2018-04-06T01:23:29.365Z,-2.19
2018-04-06T01:24:29.333Z,-2.18
2018-04-06T01:25:29.422Z,-2.20
2018-04-06T01:26:29.301Z,-2.20
2018-04-06T01:27:29.393Z,-2.23
2018-04-06T01:28:29.365Z,-2.23
2018-04-06T01:29:29.367Z,-2.27
2018-04-06T01:30:29.299Z,-2.37
2018-04-06T01:31:29.333Z,-2.41
2018-04-06T01:32:29.373Z,-2.45
2018-04-06T01:33:29.369Z,-2.51
2018-04-06T01:34:29.428Z,-2.57
2018-04-06T01:35:29.448Z,-2.59
2018-04-06T01:36:29.373Z,-2.61
2018-04-06T01:37:29.378Z,-2.59
2018-04-06T01:38:29.428Z,-2.38
2018-04-06T01:39:29.400Z,-2.29
2018-04-06T01:40:29.422Z,-2.29
2018-04-06T01:41:29.336Z,-2.31
2018-04-06T01:42:29.384Z,-2.26
2018-04-06T01:43:29.430Z,-2.24
2018-04-06T01:44:29.433Z,-2.26
2018-04-06T01:45:29.344Z,-2.33
2018-04-06T01:46:29.337Z,-2.33
2018-04-06T01:47:29.348Z,-2.37
2018-04-06T01:48:29.441Z,-2.38
2018-04-06T01:49:29.317Z,-2.33
2018-04-06T01:50:29.422Z,-2.27
2018-04-06T01:51:29.319Z,-2.23
2018-04-06T01:52:29.425Z,-2.20
2018-04-06T01:53:29.437Z,-2.19
2018-04-06T01:54:29.321Z,-2.15
2018-04-06T01:55:29.351Z,-2.12
2018-04-06T01:56:29.404Z,-2.11
2018-04-06T01:57:29.431Z,-2.12
2018-04-06T01:58:29.344Z,-2.15
2018-04-06T01:59:29.441Z,-2.20
2018-04-06T02:00:29.415Z,-2.27
2018-04-06T02:01:29.446Z,-2.35
2018-04-06T02:02:29.413Z,-2.42
2018-04-06T02:03:29.355Z,-2.48
2018-04-06T02:04:29.355Z,-2.53
2018-04-06T02:05:29.414Z,-2.57
2018-04-06T02:06:29.319Z,-2.63
2018-04-06T02:07:29.416Z,-2.65
2018-04-06T02:08:29.397Z,-2.67
2018-04-06T02:09:29.330Z,-2.68
2018-04-06T02:10:29.391Z,-2.57
2018-04-06T02:11:29.356Z,-2.52
2018-04-06T02:12:29.422Z,-2.49
2018-04-06T02:13:29.399Z,-2.51
2018-04-06T02:14:29.449Z,-2.53
2018-04-06T02:15:29.396Z,-2.57
2018-04-06T02:16:29.453Z,-2.49
2018-04-06T02:17:29.451Z,-2.45
2018-04-06T02:18:29.438Z,-2.44
2018-04-06T02:19:29.453Z,-2.45
2018-04-06T02:20:29.458Z,-2.48
2018-04-06T02:21:29.454Z,-2.51
2018-04-06T02:22:29.332Z,-2.55
2018-04-06T02:23:29.455Z,-2.63
2018-04-06T02:24:29.522Z,-2.64
2018-04-06T02:25:29.429Z,-2.67
2018-04-06T02:26:29.454Z,-2.61
2018-04-06T02:27:29.363Z,-2.49
2018-04-06T02:28:29.338Z,-2.37
2018-04-06T02:29:29.403Z,-2.23
2018-04-06T02:30:29.366Z,-2.15
2018-04-06T02:31:29.432Z,-2.09
2018-04-06T02:32:29.408Z,-2.08
2018-04-06T02:33:29.350Z,-2.09
2018-04-06T02:34:29.410Z,-2.13
2018-04-06T02:35:29.410Z,-2.20
2018-04-06T02:36:29.464Z,-2.29
2018-04-06T02:37:29.437Z,-2.31
2018-04-06T02:38:29.449Z,-2.29
2018-04-06T02:39:29.458Z,-2.23
2018-04-06T02:40:29.469Z,-2.26
2018-04-06T02:41:29.372Z,-2.26
2018-04-06T02:42:29.346Z,-2.27
2018-04-06T02:43:29.412Z,-2.29
2018-04-06T02:44:29.423Z,-2.33
2018-04-06T02:45:29.438Z,-2.37
2018-04-06T02:46:29.362Z,-2.40
2018-04-06T02:47:29.463Z,-2.44
2018-04-06T02:48:29.353Z,-2.40
2018-04-06T02:49:29.386Z,-2.31
2018-04-06T02:50:29.423Z,-2.29
2018-04-06T02:51:29.469Z,-2.30
2018-04-06T02:52:29.475Z,-2.30
2018-04-06T02:53:29.475Z,-2.29
2018-04-06T02:54:29.423Z,-2.30
2018-04-06T02:55:29.359Z,-2.35
2018-04-06T02:56:29.455Z,-2.38
2018-04-06T02:57:29.385Z,-2.45
2018-04-06T02:58:29.382Z,-2.41
2018-04-06T02:59:29.384Z,-2.40
2018-04-06T03:00:29.490Z,-2.40
2018-04-06T03:01:29.478Z,-2.40
2018-04-06T03:02:29.428Z,-2.35
2018-04-06T03:03:29.448Z,-2.27
2018-04-06T03:04:29.429Z,-2.13
2018-04-06T03:05:29.470Z,-2.11
2018-04-06T03:06:29.422Z,-2.12
2018-04-06T03:07:29.484Z,-2.11
2018-04-06T03:08:29.436Z,-2.11
2018-04-06T03:09:29.482Z,-2.13
2018-04-06T03:10:29.477Z,-2.16
2018-04-06T03:11:29.484Z,-2.19
2018-04-06T03:12:29.489Z,-2.24
2018-04-06T03:13:29.395Z,-2.30
2018-04-06T03:14:29.371Z,-2.37
2018-04-06T03:15:29.470Z,-2.45
2018-04-06T03:16:29.486Z,-2.42
2018-04-06T03:17:29.496Z,-2.35
2018-04-06T03:18:29.373Z,-2.27
2018-04-06T03:19:29.435Z,-2.26
2018-04-06T03:20:29.479Z,-2.26
2018-04-06T03:21:29.491Z,-2.24
2018-04-06T03:22:29.374Z,-2.29
2018-04-06T03:23:29.492Z,-2.31
2018-04-06T03:24:29.466Z,-2.38
2018-04-06T03:25:29.491Z,-2.47
2018-04-06T03:26:29.491Z,-2.57
2018-04-06T03:27:29.378Z,-2.61
2018-04-06T03:28:29.445Z,-2.65
2018-04-06T03:29:29.487Z,-2.65
2018-04-06T03:30:29.499Z,-2.68
2018-04-06T03:31:29.497Z,-2.67
2018-04-06T03:32:29.407Z,-2.64
2018-04-06T03:33:29.380Z,-2.67
2018-04-06T03:34:29.403Z,-2.67
2018-04-06T03:35:29.412Z,-2.74
2018-04-06T03:36:29.499Z,-2.78
2018-04-06T03:37:29.506Z,-2.83
2018-04-06T03:38:29.459Z,-2.86
2018-04-06T03:39:29.383Z,-2.89
2018-04-06T03:40:29.498Z,-2.94
2018-04-06T03:41:29.474Z,-2.97
2018-04-06T03:42:29.501Z,-3.04
2018-04-06T03:43:29.452Z,-3.07
2018-04-06T03:44:29.416Z,-2.98
2018-04-06T03:45:29.416Z,-2.94
2018-04-06T03:46:29.388Z,-2.85
2018-04-06T03:47:29.508Z,-2.83
2018-04-06T03:48:29.389Z,-2.79
2018-04-06T03:49:29.421Z,-2.74
2018-04-06T03:50:29.392Z,-2.71
2018-04-06T03:51:29.514Z,-2.68
2018-04-06T03:52:29.505Z,-2.64
2018-04-06T03:53:29.493Z,-2.61
2018-04-06T03:54:29.424Z,-2.48
2018-04-06T03:55:29.516Z,-2.33
2018-04-06T03:56:29.484Z,-2.29
2018-04-06T03:57:29.484Z,-2.29
2018-04-06T03:58:29.485Z,-2.19
2018-04-06T03:59:29.394Z,-2.11
2018-04-06T04:00:29.486Z,-1.98
2018-04-06T04:01:29.405Z,-1.85
2018-04-06T04:02:29.472Z,-1.76
2018-04-06T04:03:29.428Z,-1.67
2018-04-06T04:04:29.423Z,-1.66
2018-04-06T04:05:29.400Z,-1.67
2018-04-06T04:06:29.400Z,-1.70
2018-04-06T04:07:29.438Z,-1.73
2018-04-06T04:08:29.516Z,-1.76
2018-04-06T04:09:29.512Z,-1.73
2018-04-06T04:10:29.423Z,-1.80
2018-04-06T04:11:29.525Z,-1.78
2018-04-06T04:12:29.523Z,-1.82
2018-04-06T04:13:29.438Z,-1.82
2018-04-06T04:14:29.475Z,-1.78
2018-04-06T04:15:29.466Z,-1.76
2018-04-06T04:16:29.432Z,-1.76
2018-04-06T04:17:29.402Z,-1.80
2018-04-06T04:18:29.470Z,-1.87
2018-04-06T04:19:29.568Z,-1.93
2018-04-06T04:20:29.411Z,-1.98
2018-04-06T04:21:29.431Z,-2.05
2018-04-06T04:22:29.409Z,-2.12
2018-04-06T04:23:29.438Z,-2.22
2018-04-06T04:24:29.521Z,-2.26
2018-04-06T04:25:29.501Z,-2.31
2018-04-06T04:26:29.526Z,-2.40
2018-04-06T04:27:29.439Z,-2.48
2018-04-06T04:28:29.529Z,-2.52
2018-04-06T04:29:29.504Z,-2.55
2018-04-06T04:30:29.530Z,-2.57
2018-04-06T04:31:29.541Z,-2.63
2018-04-06T04:32:29.508Z,-2.65
2018-04-06T04:33:29.530Z,-2.70
2018-04-06T04:34:29.505Z,-2.74
2018-04-06T04:35:29.421Z,-2.76
2018-04-06T04:36:29.424Z,-2.78
2018-04-06T04:37:29.488Z,-2.78
2018-04-06T04:38:29.528Z,-2.71
2018-04-06T04:39:29.490Z,-2.72
2018-04-06T04:40:29.544Z,-2.72
2018-04-06T04:41:29.530Z,-2.74
2018-04-06T04:42:29.488Z,-2.75
2018-04-06T04:43:29.450Z,-2.76
2018-04-06T04:44:29.541Z,-2.81
2018-04-06T04:45:29.540Z,-2.86
2018-04-06T04:46:29.460Z,-2.92
2018-04-06T04:47:29.458Z,-2.96
2018-04-06T04:48:29.513Z,-3.03
2018-04-06T04:49:29.519Z,-3.07
2018-04-06T04:50:29.427Z,-3.07
2018-04-06T04:51:29.542Z,-3.08
2018-04-06T04:52:29.515Z,-3.11
2018-04-06T04:53:29.496Z,-3.15
2018-04-06T04:54:29.499Z,-3.08
2018-04-06T04:55:29.495Z,-3.08
2018-04-06T04:56:29.423Z,-3.07
2018-04-06T04:57:29.437Z,-3.07
2018-04-06T04:58:29.457Z,-3.04
2018-04-06T04:59:29.518Z,-3.05
2018-04-06T05:00:29.521Z,-3.05
2018-04-06T05:01:29.522Z,-3.07
2018-04-06T05:02:29.520Z,-3.05
2018-04-06T05:03:29.488Z,-3.07
2018-04-06T05:04:29.492Z,-3.07
2018-04-06T05:05:29.524Z,-3.03
2018-04-06T05:06:29.546Z,-3.01
2018-04-06T05:07:29.494Z,-2.94
2018-04-06T05:08:29.433Z,-2.76
2018-04-06T05:09:29.555Z,-2.65
2018-04-06T05:10:29.557Z,-2.53
2018-04-06T05:11:29.497Z,-2.47
2018-04-06T05:12:29.556Z,-2.35
2018-04-06T05:13:29.430Z,-2.34
2018-04-06T05:14:29.469Z,-2.31
2018-04-06T05:15:29.528Z,-2.23
2018-04-06T05:16:29.464Z,-2.09
2018-04-06T05:17:29.439Z,-2.05
2018-04-06T05:18:29.503Z,-2.08
2018-04-06T05:19:29.436Z,-2.11
2018-04-06T05:20:29.506Z,-2.13
2018-04-06T05:21:29.554Z,-2.16
2018-04-06T05:22:29.537Z,-2.19
2018-04-06T05:23:29.436Z,-2.22
2018-04-06T05:24:29.518Z,-2.26
2018-04-06T05:25:29.555Z,-2.24
2018-04-06T05:26:29.451Z,-2.22
2018-04-06T05:27:29.444Z,-2.13
2018-04-06T05:28:29.455Z,-2.11
2018-04-06T05:29:29.525Z,-2.02
2018-04-06T05:30:29.535Z,-2.00
2018-04-06T05:31:29.506Z,-1.95
2018-04-06T05:32:29.447Z,-2.00
2018-04-06T05:33:29.450Z,-2.00
2018-04-06T05:34:29.524Z,-2.04
2018-04-06T05:35:29.565Z,-2.05
2018-04-06T05:36:29.514Z,-2.01
2018-04-06T05:37:29.449Z,-2.01
2018-04-06T05:38:29.572Z,-2.01
2018-04-06T05:39:29.525Z,-1.95
2018-04-06T05:40:29.548Z,-1.95
2018-04-06T05:41:29.485Z,-1.93
2018-04-06T05:42:29.482Z,-1.89
2018-04-06T05:43:29.509Z,-1.91
2018-04-06T05:44:29.573Z,-1.95
2018-04-06T05:45:29.453Z,-1.89
2018-04-06T05:46:29.491Z,-1.91
2018-04-06T05:47:29.456Z,-1.89
2018-04-06T05:48:29.548Z,-1.88
2018-04-06T05:49:29.457Z,-1.82
2018-04-06T05:50:29.521Z,-1.82
2018-04-06T05:51:29.578Z,-1.81
2018-04-06T05:52:29.525Z,-1.76
2018-04-06T05:53:29.492Z,-1.69
2018-04-06T05:54:29.588Z,-1.63
2018-04-06T05:55:29.572Z,-1.52
2018-04-06T05:56:29.494Z,-1.38
2018-04-06T05:57:29.584Z,-1.18
2018-04-06T05:58:29.462Z,-0.93
2018-04-06T05:59:29.561Z,-0.84
2018-04-06T06:00:29.536Z,-0.65
2018-04-06T06:01:29.535Z,-0.55
2018-04-06T06:02:29.527Z,-0.44
2018-04-06T06:03:29.473Z,-0.36
2018-04-06T06:04:29.500Z,-0.20
2018-04-06T06:05:29.590Z,-0.06
2018-04-06T06:06:29.533Z,0.02
2018-04-06T06:07:29.499Z,0.05
2018-04-06T06:08:29.471Z,0.16
2018-04-06T06:09:29.583Z,0.29
2018-04-06T06:10:29.497Z,0.36
2018-04-06T06:11:29.532Z,0.42
2018-04-06T06:12:29.479Z,0.45
2018-04-06T06:13:29.570Z,0.33
2018-04-06T06:14:29.586Z,0.26
2018-04-06T06:15:29.566Z,0.19
2018-04-06T06:16:29.563Z,0.18
2018-04-06T06:17:29.503Z,0.27
2018-04-06T06:18:29.501Z,0.33
2018-04-06T06:19:29.473Z,0.38
2018-04-06T06:20:29.484Z,0.51
2018-04-06T06:21:29.540Z,0.68
2018-04-06T06:22:29.510Z,0.83
2018-04-06T06:23:29.510Z,0.81
2018-04-06T06:24:29.537Z,0.81
2018-04-06T06:25:29.484Z,0.76
2018-04-06T06:26:29.546Z,0.67
2018-04-06T06:27:29.509Z,0.65
2018-04-06T06:28:29.540Z,0.72
2018-04-06T06:29:29.573Z,0.82
2018-04-06T06:30:29.575Z,0.90
2018-04-06T06:31:29.486Z,0.98
2018-04-06T06:32:29.541Z,1.02
2018-04-06T06:33:29.606Z,1.12
2018-04-06T06:34:29.607Z,1.02
2018-04-06T06:35:29.486Z,1.05
2018-04-06T06:36:29.578Z,1.04
2018-04-06T06:37:29.519Z,0.98
2018-04-06T06:38:29.547Z,0.90
2018-04-06T06:39:29.643Z,0.90
2018-04-06T06:40:29.554Z,1.02
2018-04-06T06:42:29.486Z,1.31
2018-04-06T06:43:29.524Z,1.39
2018-04-06T06:44:29.551Z,1.53
2018-04-06T06:45:29.491Z,1.58
2018-04-06T06:46:29.564Z,1.64
2018-04-06T06:47:29.493Z,1.75
2018-04-06T06:48:29.588Z,1.72
2018-04-06T06:49:29.494Z,1.76
2018-04-06T06:50:29.504Z,1.87
2018-04-06T06:51:29.586Z,1.90
2018-04-06T06:52:29.609Z,2.02
2018-04-06T06:53:29.588Z,1.98
2018-04-06T06:54:29.587Z,2.01
2018-04-06T06:55:29.616Z,2.06
2018-04-06T06:56:29.562Z,2.23
2018-04-06T06:57:29.505Z,2.24
2018-04-06T06:58:29.500Z,2.24
2018-04-06T06:59:29.618Z,2.26
2018-04-06T07:00:29.509Z,2.33
2018-04-06T07:01:29.562Z,2.32
2018-04-06T07:02:29.511Z,2.33
2018-04-06T07:03:29.533Z,2.47
2018-04-06T07:04:29.594Z,2.50
2018-04-06T07:05:29.537Z,2.62
2018-04-06T07:06:29.590Z,2.70
2018-04-06T07:07:29.580Z,2.88
2018-04-06T07:08:29.595Z,2.98
2018-04-06T07:09:29.597Z,2.98
2018-04-06T07:10:29.576Z,2.95
2018-04-06T07:11:29.601Z,3.06
2018-04-06T07:12:29.575Z,3.26
2018-04-06T07:13:29.540Z,3.35
2018-04-06T07:14:29.506Z,3.33
2018-04-06T07:15:29.515Z,3.35
2018-04-06T07:16:29.517Z,3.33
2018-04-06T07:17:29.537Z,3.46
2018-04-06T07:18:29.624Z,3.50
2018-04-06T07:19:29.512Z,3.58
2018-04-06T07:20:29.521Z,3.53
2018-04-06T07:21:29.512Z,3.54
2018-04-06T07:22:29.576Z,3.48
2018-04-06T07:23:29.587Z,3.36
2018-04-06T07:24:29.527Z,3.40
2018-04-06T07:25:29.633Z,3.42
2018-04-06T07:26:29.634Z,3.44
2018-04-06T07:27:29.579Z,3.62
2018-04-06T07:28:29.611Z,3.83
2018-04-06T07:29:29.588Z,3.92
2018-04-06T07:30:29.527Z,3.90
2018-04-06T07:31:29.608Z,4.01
2018-04-06T07:32:29.532Z,4.11
2018-04-06T07:33:29.557Z,4.14
2018-04-06T07:34:29.613Z,4.24
2018-04-06T07:35:29.640Z,4.36
2018-04-06T07:36:29.634Z,4.39
2018-04-06T07:37:29.617Z,4.39
2018-04-06T07:38:29.592Z,4.46
2018-04-06T07:39:29.533Z,4.52
2018-04-06T07:40:29.585Z,4.51
2018-04-06T07:41:29.615Z,4.60
2018-04-06T07:42:29.527Z,4.52
2018-04-06T07:43:29.650Z,4.39
2018-04-06T07:44:29.588Z,4.43
2018-04-06T07:45:29.639Z,4.47
2018-04-06T07:46:29.589Z,4.60
2018-04-06T07:47:29.528Z,4.69
2018-04-06T07:48:29.525Z,4.60
2018-04-06T07:49:29.603Z,4.66
2018-04-06T07:50:29.620Z,4.69
2018-04-06T07:51:29.594Z,4.57
2018-04-06T07:52:29.562Z,4.51
2018-04-06T07:53:29.565Z,4.55
2018-04-06T07:54:29.561Z,4.62
2018-04-06T07:55:29.547Z,4.69
2018-04-06T07:56:29.626Z,4.71
2018-04-06T07:57:29.536Z,4.74
2018-04-06T07:58:29.609Z,4.73
2018-04-06T07:59:29.574Z,4.78
2018-04-06T08:00:29.657Z,4.80
2018-04-06T08:01:29.535Z,4.95
2018-04-06T08:02:29.576Z,4.84
2018-04-06T08:03:29.546Z,4.91
2018-04-06T08:04:29.608Z,4.96
2018-04-06T08:05:29.638Z,4.99
2018-04-06T08:06:29.547Z,5.04
2018-04-06T08:07:29.574Z,5.21
2018-04-06T08:08:29.637Z,5.45
2018-04-06T08:09:29.664Z,5.44
2018-04-06T08:10:29.541Z,5.62
2018-04-06T08:11:29.617Z,5.67
2018-04-06T08:12:29.605Z,5.68
2018-04-06T08:13:29.623Z,5.66
2018-04-06T08:14:29.554Z,5.59
2018-04-06T08:15:29.577Z,5.62
2018-04-06T08:16:29.546Z,5.85
2018-04-06T08:17:29.572Z,5.99
2018-04-06T08:18:29.620Z,6.22
2018-04-06T08:19:29.637Z,6.29
2018-04-06T08:20:29.584Z,6.22
2018-04-06T08:21:29.622Z,6.34
2018-04-06T08:22:29.558Z,6.48
2018-04-06T08:23:29.667Z,6.43
2018-04-06T08:24:29.583Z,6.66
2018-04-06T08:25:29.583Z,6.94
2018-04-06T08:26:29.711Z,7.09
2018-04-06T08:27:29.642Z,6.97
2018-04-06T08:28:29.582Z,6.93
2018-04-06T08:29:29.638Z,7.01
2018-04-06T08:30:29.551Z,7.24
2018-04-06T08:31:29.677Z,7.22
2018-04-06T08:32:29.553Z,7.12
2018-04-06T08:33:29.592Z,7.23
2018-04-06T08:34:29.678Z,7.22
2018-04-06T08:35:29.568Z,7.41
2018-04-06T08:36:29.627Z,7.68
2018-04-06T08:37:29.655Z,7.83
2018-04-06T08:38:29.623Z,7.78
2018-04-06T08:39:29.680Z,7.83
2018-04-06T08:40:29.558Z,7.59
2018-04-06T08:41:29.622Z,7.51
2018-04-06T08:42:29.677Z,7.71
2018-04-06T08:43:29.637Z,7.89
2018-04-06T08:44:29.682Z,7.79
2018-04-06T08:45:29.657Z,7.75
2018-04-06T08:46:29.686Z,7.90
2018-04-06T08:47:29.589Z,8.09
2018-04-06T08:48:29.590Z,8.28
2018-04-06T08:49:29.680Z,8.46
2018-04-06T08:50:29.593Z,8.54
2018-04-06T08:51:29.604Z,8.80
2018-04-06T08:52:29.628Z,9.01
2018-04-06T08:53:29.661Z,9.16
2018-04-06T08:54:29.629Z,9.30
2018-04-06T08:55:29.684Z,9.43
2018-04-06T08:56:29.632Z,9.54
2018-04-06T08:57:29.686Z,9.57
2018-04-06T08:58:29.603Z,9.49
2018-04-06T08:59:29.657Z,9.34
2018-04-06T09:00:29.599Z,9.49
2018-04-06T09:01:29.638Z,9.62
2018-04-06T09:02:29.610Z,9.73
2018-04-06T09:03:29.668Z,9.84
2018-04-06T09:04:29.696Z,9.83
2018-04-06T09:05:29.697Z,9.93
2018-04-06T09:06:29.578Z,10.09
2018-04-06T09:07:29.652Z,10.24
2018-04-06T09:08:29.701Z,10.11
2018-04-06T09:09:29.603Z,10.00
2018-04-06T09:10:29.648Z,10.23
2018-04-06T09:11:29.583Z,10.36
2018-04-06T09:12:29.697Z,10.32
2018-04-06T09:13:29.612Z,10.27
2018-04-06T09:14:29.613Z,10.35
2018-04-06T09:15:29.620Z,10.47
2018-04-06T09:16:29.646Z,10.53
2018-04-06T09:17:29.586Z,10.79
2018-04-06T09:18:29.702Z,10.67
2018-04-06T09:19:29.646Z,10.36
2018-04-06T09:20:29.654Z,10.43
2018-04-06T09:21:29.706Z,10.45
2018-04-06T09:22:29.590Z,10.68
2018-04-06T09:23:29.650Z,10.97
2018-04-06T09:24:29.619Z,11.14
2018-04-06T09:25:29.657Z,11.35
2018-04-06T09:26:29.709Z,11.36
2018-04-06T09:27:29.711Z,11.06
2018-04-06T09:28:29.599Z,10.90
2018-04-06T09:29:29.626Z,10.84
2018-04-06T09:30:29.687Z,11.00
2018-04-06T09:31:29.717Z,11.07
2018-04-06T09:32:29.714Z,11.24
2018-04-06T09:33:29.628Z,11.42
2018-04-06T09:34:29.714Z,11.69
2018-04-06T09:35:29.718Z,11.78
2018-04-06T09:36:29.624Z,11.80
2018-04-06T09:37:29.624Z,11.99
2018-04-06T09:38:29.604Z,12.13
2018-04-06T09:39:29.631Z,12.12
2018-04-06T09:40:29.610Z,12.24
2018-04-06T09:41:29.662Z,12.43
2018-04-06T09:42:29.670Z,12.44
2018-04-06T09:43:29.694Z,12.32
2018-04-06T09:44:29.726Z,12.32
2018-04-06T09:45:29.632Z,12.36
2018-04-06T09:46:29.697Z,12.54
2018-04-06T09:47:29.718Z,12.69
2018-04-06T09:48:29.630Z,12.75
2018-04-06T09:49:29.628Z,12.64
2018-04-06T09:50:29.725Z,12.12
2018-04-06T09:51:29.667Z,11.97
2018-04-06T09:52:29.652Z,12.18
2018-04-06T09:53:29.637Z,12.24
2018-04-06T09:54:29.607Z,12.43
2018-04-06T09:55:29.702Z,12.46
2018-04-06T09:56:29.731Z,12.71
2018-04-06T09:57:29.669Z,12.92
2018-04-06T09:58:29.721Z,12.77
2018-04-06T09:59:29.680Z,13.10
2018-04-06T10:00:29.613Z,13.21
2018-04-06T10:01:29.726Z,13.29
2018-04-06T10:02:29.705Z,13.28
2018-04-06T10:03:29.684Z,13.16
2018-04-06T10:04:29.639Z,13.27
2018-04-06T10:05:29.647Z,13.31
2018-04-06T10:06:29.690Z,13.36
2018-04-06T10:07:29.614Z,13.23
2018-04-06T10:08:29.639Z,13.45
2018-04-06T10:09:29.620Z,13.64
2018-04-06T10:10:29.708Z,13.16
2018-04-06T10:11:29.739Z,12.91
2018-04-06T10:12:29.737Z,13.03
2018-04-06T10:13:29.715Z,13.12
2018-04-06T10:14:29.630Z,12.91
2018-04-06T10:15:29.617Z,13.09
2018-04-06T10:16:29.715Z,13.09
2018-04-06T10:17:29.629Z,12.96
2018-04-06T10:18:29.692Z,12.79
2018-04-06T10:19:29.683Z,12.72
2018-04-06T10:20:29.693Z,13.03
2018-04-06T10:21:29.721Z,13.06
2018-04-06T10:22:29.745Z,13.29
2018-04-06T10:23:29.743Z,13.57
2018-04-06T10:24:29.720Z,13.64
2018-04-06T10:25:29.743Z,13.95
2018-04-06T10:26:29.700Z,14.04
2018-04-06T10:27:29.742Z,13.99
2018-04-06T10:28:29.704Z,13.76
2018-04-06T10:29:29.659Z,13.53
2018-04-06T10:30:29.653Z,13.49
2018-04-06T10:31:29.750Z,13.23
2018-04-06T10:32:29.747Z,13.05
2018-04-06T10:33:29.666Z,13.38
2018-04-06T10:34:29.629Z,13.61
2018-04-06T10:35:29.696Z,13.64
2018-04-06T10:36:29.634Z,13.43
2018-04-06T10:37:29.757Z,13.39
2018-04-06T10:38:29.701Z,13.61
2018-04-06T10:39:29.701Z,13.89
2018-04-06T10:40:29.804Z,13.77
2018-04-06T10:41:29.639Z,13.81
2018-04-06T10:42:29.756Z,13.73
2018-04-06T10:43:29.710Z,13.79
2018-04-06T10:44:29.669Z,13.79
2018-04-06T10:45:29.730Z,14.02
2018-04-06T10:46:29.737Z,13.72
2018-04-06T10:47:29.669Z,13.77
2018-04-06T10:48:29.760Z,13.77
2018-04-06T10:49:29.663Z,13.83
2018-04-06T10:50:29.644Z,13.80
2018-04-06T10:51:29.763Z,14.03
2018-04-06T10:52:29.816Z,14.27
2018-04-06T10:53:29.713Z,14.51
2018-04-06T10:54:29.653Z,14.61
2018-04-06T10:55:29.649Z,14.54
2018-04-06T10:56:29.680Z,14.49
2018-04-06T10:57:29.674Z,14.71
2018-04-06T10:58:29.648Z,14.79
2018-04-06T10:59:29.648Z,14.86
2018-04-06T11:00:29.720Z,14.92
2018-04-06T11:01:29.715Z,14.94
2018-04-06T11:02:29.651Z,15.04
2018-04-06T11:03:29.766Z,14.84
2018-04-06T11:04:29.769Z,14.87
2018-04-06T11:05:29.720Z,14.91
2018-04-06T11:06:29.716Z,14.75
2018-04-06T11:07:29.748Z,14.49
2018-04-06T11:08:29.655Z,14.49
2018-04-06T11:09:29.683Z,14.62
2018-04-06T11:10:29.774Z,14.79
2018-04-06T11:11:29.782Z,15.03
2018-04-06T11:12:29.689Z,15.28
2018-04-06T11:13:29.778Z,15.46
2018-04-06T11:14:29.687Z,15.51
2018-04-06T11:15:29.779Z,15.04
2018-04-06T11:16:29.659Z,14.75
2018-04-06T11:17:29.685Z,14.40
2018-04-06T11:18:29.658Z,14.62
2018-04-06T11:19:29.688Z,14.98
2018-04-06T11:20:29.666Z,15.29
2018-04-06T11:21:29.774Z,15.51
2018-04-06T11:22:29.756Z,15.29
2018-04-06T11:23:29.705Z,15.02
2018-04-06T11:24:29.780Z,15.15
2018-04-06T11:25:29.671Z,15.21
2018-04-06T11:26:29.710Z,15.32
2018-04-06T11:27:29.664Z,15.58
2018-04-06T11:28:29.695Z,15.48
2018-04-06T11:29:29.725Z,15.58
2018-04-06T11:30:29.781Z,15.73
2018-04-06T11:31:29.757Z,15.68
2018-04-06T11:32:29.705Z,15.83
2018-04-06T11:33:29.731Z,16.22
2018-04-06T11:34:29.788Z,16.28
2018-04-06T11:35:29.734Z,16.35
2018-04-06T11:36:29.783Z,16.29
2018-04-06T11:37:29.706Z,15.99
2018-04-06T11:38:29.671Z,15.99
2018-04-06T11:39:29.768Z,16.00
2018-04-06T11:40:29.800Z,15.88
2018-04-06T11:41:29.729Z,15.97
2018-04-06T11:42:29.736Z,16.07
2018-04-06T11:43:29.787Z,16.25
2018-04-06T11:44:29.739Z,16.41
2018-04-06T11:45:29.705Z,16.51
2018-04-06T11:46:29.798Z,16.36
2018-04-06T11:47:29.770Z,16.06
2018-04-06T11:48:29.774Z,15.65
2018-04-06T11:49:29.680Z,15.69
2018-04-06T11:50:29.711Z,15.84
2018-04-06T11:51:29.804Z,15.88
2018-04-06T11:52:29.753Z,15.95
2018-04-06T11:53:29.795Z,15.88
2018-04-06T11:54:29.690Z,15.79
2018-04-06T11:55:29.714Z,15.72
2018-04-06T11:56:29.685Z,15.68
2018-04-06T11:57:29.754Z,15.36
2018-04-06T11:58:29.775Z,15.25
2018-04-06T11:59:29.709Z,15.44
2018-04-06T12:00:29.755Z,15.66
2018-04-06T12:01:29.746Z,15.86
2018-04-06T12:02:29.753Z,15.70
2018-04-06T12:03:29.798Z,15.93
2018-04-06T12:04:29.701Z,16.16
2018-04-06T12:05:29.720Z,16.13
2018-04-06T12:06:29.776Z,15.90
2018-04-06T12:07:29.803Z,16.13
2018-04-06T12:08:29.804Z,16.02
2018-04-06T12:09:29.778Z,16.16
2018-04-06T12:10:29.726Z,16.28
2018-04-06T12:11:29.716Z,16.48
2018-04-06T12:12:29.760Z,16.58
2018-04-06T12:13:29.785Z,16.69
2018-04-06T12:14:29.758Z,16.46
2018-04-06T12:15:29.696Z,16.65
2018-04-06T12:16:29.721Z,16.83
2018-04-06T12:17:29.808Z,16.52
2018-04-06T12:18:29.729Z,16.58
2018-04-06T12:19:29.818Z,16.70
2018-04-06T12:20:29.728Z,16.72
2018-04-06T12:21:29.812Z,16.61
2018-04-06T12:22:29.822Z,16.16
2018-04-06T12:23:29.818Z,15.80
2018-04-06T12:24:29.711Z,15.57
2018-04-06T12:25:29.768Z,15.66
2018-04-06T12:26:29.709Z,15.83
2018-04-06T12:27:29.695Z,15.90
2018-04-06T12:28:29.700Z,16.05
2018-04-06T12:29:29.733Z,16.09
2018-04-06T12:30:29.770Z,16.00
2018-04-06T12:31:29.779Z,15.94
2018-04-06T12:32:29.769Z,15.88
2018-04-06T12:33:29.820Z,15.79
2018-04-06T12:34:29.736Z,15.76
2018-04-06T12:35:29.819Z,16.14
2018-04-06T12:36:29.737Z,16.32
2018-04-06T12:37:29.775Z,16.14
2018-04-06T12:38:29.767Z,15.97
2018-04-06T12:39:29.739Z,15.77
2018-04-06T12:40:29.739Z,15.93
2018-04-06T12:41:29.768Z,15.68
2018-04-06T12:42:29.719Z,15.65
2018-04-06T12:43:29.824Z,15.75
2018-04-06T12:44:29.734Z,15.75
2018-04-06T12:45:29.773Z,15.72
2018-04-06T12:46:29.832Z,15.65
2018-04-06T12:47:29.780Z,15.88
2018-04-06T12:48:29.723Z,16.16
2018-04-06T12:49:29.835Z,16.06
2018-04-06T12:50:29.717Z,15.97
2018-04-06T12:51:29.810Z,15.94
2018-04-06T12:52:29.829Z,15.94
2018-04-06T12:53:29.742Z,16.14
2018-04-06T12:54:29.803Z,16.13
2018-04-06T12:55:29.751Z,16.10
2018-04-06T12:56:29.834Z,16.21
2018-04-06T12:57:29.794Z,16.41
2018-04-06T12:58:29.832Z,16.44
2018-04-06T12:59:29.718Z,16.55